sensor_id;sensor_type;location;lat;lon;timestamp;pressure;altitude;pressure_sealevel;temperature;humidity
79455;BME280;68900;52.134;5.420;2023-08-21T00:01:32;102444.09;;;19.61;76.20
79455;BME280;68900;52.134;5.420;2023-08-21T00:03:59;102439.81;;;19.58;76.62
79455;BME280;68900;52.134;5.420;2023-08-21T00:06:25;102441.88;;;19.56;76.59
79455;BME280;68900;52.134;5.420;2023-08-21T00:08:52;102445.97;;;19.52;76.96
79455;BME280;68900;52.134;5.420;2023-08-21T00:11:18;102444.09;;;19.53;76.41
79455;BME280;68900;52.134;5.420;2023-08-21T00:13:48;102447.19;;;19.58;76.05
79455;BME280;68900;52.134;5.420;2023-08-21T00:16:18;102454.88;;;19.54;76.59
79455;BME280;68900;52.134;5.420;2023-08-21T00:18:45;102453.69;;;19.49;77.00
79455;BME280;68900;52.134;5.420;2023-08-21T00:21:12;102453.34;;;19.44;77.00
79455;BME280;68900;52.134;5.420;2023-08-21T00:23:38;102449.41;;;19.46;76.79
79455;BME280;68900;52.134;5.420;2023-08-21T00:26:05;102452.28;;;19.36;76.94
79455;BME280;68900;52.134;5.420;2023-08-21T00:28:32;102448.34;;;19.39;77.36
79455;BME280;68900;52.134;5.420;2023-08-21T00:31:00;102446.97;;;19.35;77.17
79455;BME280;68900;52.134;5.420;2023-08-21T00:33:28;102454.47;;;19.33;77.00
79455;BME280;68900;52.134;5.420;2023-08-21T00:35:55;102450.41;;;19.37;76.69
79455;BME280;68900;52.134;5.420;2023-08-21T00:38:21;102450.56;;;19.35;76.55
79455;BME280;68900;52.134;5.420;2023-08-21T00:40:48;102446.81;;;19.36;76.84
79455;BME280;68900;52.134;5.420;2023-08-21T00:43:15;102452.44;;;19.35;77.20
79455;BME280;68900;52.134;5.420;2023-08-21T00:45:46;102447.31;;;19.32;76.87
79455;BME280;68900;52.134;5.420;2023-08-21T00:48:17;102440.13;;;19.31;76.78
79455;BME280;68900;52.134;5.420;2023-08-21T00:50:45;102444.03;;;19.28;77.03
79455;BME280;68900;52.134;5.420;2023-08-21T00:53:12;102436.16;;;19.25;76.99
79455;BME280;68900;52.134;5.420;2023-08-21T00:55:40;102445.41;;;19.24;77.31
79455;BME280;68900;52.134;5.420;2023-08-21T00:58:09;102439.94;;;19.24;77.18
79455;BME280;68900;52.134;5.420;2023-08-21T01:00:37;102438.25;;;19.23;77.46
79455;BME280;68900;52.134;5.420;2023-08-21T01:03:07;102442.31;;;19.19;77.26
79455;BME280;68900;52.134;5.420;2023-08-21T01:05:35;102438.91;;;19.17;77.02
79455;BME280;68900;52.134;5.420;2023-08-21T01:08:10;102434.81;;;19.21;77.15
79455;BME280;68900;52.134;5.420;2023-08-21T01:16:05;102434.97;;;19.20;76.79
79455;BME280;68900;52.134;5.420;2023-08-21T01:18:34;102437.19;;;19.16;77.08
79455;BME280;68900;52.134;5.420;2023-08-21T01:21:02;102429.84;;;19.17;77.35
79455;BME280;68900;52.134;5.420;2023-08-21T01:23:34;102436.16;;;19.09;77.47
79455;BME280;68900;52.134;5.420;2023-08-21T01:26:02;102436.31;;;19.08;77.88
79455;BME280;68900;52.134;5.420;2023-08-21T01:28:29;102432.72;;;19.07;77.96
79455;BME280;68900;52.134;5.420;2023-08-21T01:33:45;102432.53;;;19.01;78.24
79455;BME280;68900;52.134;5.420;2023-08-21T01:36:12;102430.66;;;19.01;78.00
79455;BME280;68900;52.134;5.420;2023-08-21T01:38:40;102439.91;;;19.00;78.12
79455;BME280;68900;52.134;5.420;2023-08-21T01:41:06;102435.09;;;19.02;77.89
79455;BME280;68900;52.134;5.420;2023-08-21T01:43:33;102442.78;;;18.98;77.70
79455;BME280;68900;52.134;5.420;2023-08-21T01:46:01;102438.34;;;18.97;78.23
79455;BME280;68900;52.134;5.420;2023-08-21T01:48:27;102445.38;;;19.00;78.63
79455;BME280;68900;52.134;5.420;2023-08-21T01:50:57;102440.72;;;19.01;78.26
79455;BME280;68900;52.134;5.420;2023-08-21T01:53:26;102441.44;;;19.03;78.32
79455;BME280;68900;52.134;5.420;2023-08-21T01:55:57;102440.72;;;19.01;78.55
79455;BME280;68900;52.134;5.420;2023-08-21T01:58:23;102436.47;;;18.98;78.48
79455;BME280;68900;52.134;5.420;2023-08-21T02:00:52;102445.69;;;18.97;78.51
79455;BME280;68900;52.134;5.420;2023-08-21T02:03:18;102442.94;;;18.97;78.90
79455;BME280;68900;52.134;5.420;2023-08-21T02:05:48;102452.53;;;18.93;79.04
79455;BME280;68900;52.134;5.420;2023-08-21T02:08:14;102447.19;;;18.91;78.97
79455;BME280;68900;52.134;5.420;2023-08-21T02:10:50;102442.78;;;18.90;78.50
79455;BME280;68900;52.134;5.420;2023-08-21T02:13:19;102437.31;;;18.90;79.21
79455;BME280;68900;52.134;5.420;2023-08-21T02:15:46;102433.00;;;18.88;79.28
79455;BME280;68900;52.134;5.420;2023-08-21T02:18:13;102438.66;;;18.86;79.38
79455;BME280;68900;52.134;5.420;2023-08-21T02:20:41;102440.53;;;18.86;79.16
79455;BME280;68900;52.134;5.420;2023-08-21T02:23:07;102444.28;;;18.85;79.59
79455;BME280;68900;52.134;5.420;2023-08-21T02:25:34;102447.19;;;18.83;78.92
79455;BME280;68900;52.134;5.420;2023-08-21T02:28:00;102435.56;;;18.81;79.02
79455;BME280;68900;52.134;5.420;2023-08-21T02:30:28;102436.09;;;18.85;79.11
79455;BME280;68900;52.134;5.420;2023-08-21T02:32:54;102439.50;;;18.87;79.16
79455;BME280;68900;52.134;5.420;2023-08-21T02:35:21;102439.50;;;18.87;79.43
79455;BME280;68900;52.134;5.420;2023-08-21T02:37:47;102432.34;;;18.86;79.09
79455;BME280;68900;52.134;5.420;2023-08-21T02:40:14;102438.69;;;18.94;78.66
79455;BME280;68900;52.134;5.420;2023-08-21T02:42:41;102440.41;;;18.95;79.15
79455;BME280;68900;52.134;5.420;2023-08-21T02:45:08;102443.63;;;18.91;79.60
79455;BME280;68900;52.134;5.420;2023-08-21T02:47:39;102449.75;;;18.85;79.01
79455;BME280;68900;52.134;5.420;2023-08-21T02:50:07;102454.88;;;18.88;79.87
79455;BME280;68900;52.134;5.420;2023-08-21T02:52:34;102452.34;;;18.86;79.64
79455;BME280;68900;52.134;5.420;2023-08-21T02:55:02;102449.91;;;18.83;79.96
79455;BME280;68900;52.134;5.420;2023-08-21T02:57:31;102442.91;;;18.81;80.19
79455;BME280;68900;52.134;5.420;2023-08-21T02:59:58;102449.25;;;18.81;80.06
79455;BME280;68900;52.134;5.420;2023-08-21T03:02:24;102441.19;;;18.80;80.18
79455;BME280;68900;52.134;5.420;2023-08-21T03:04:51;102447.69;;;18.79;80.10
79455;BME280;68900;52.134;5.420;2023-08-21T03:07:18;102452.13;;;18.80;80.28
79455;BME280;68900;52.134;5.420;2023-08-21T03:09:46;102445.81;;;18.79;80.22
79455;BME280;68900;52.134;5.420;2023-08-21T03:12:15;102444.94;;;18.79;80.47
79455;BME280;68900;52.134;5.420;2023-08-21T03:14:42;102444.09;;;18.78;80.81
79455;BME280;68900;52.134;5.420;2023-08-21T03:17:12;102455.88;;;18.79;79.58
79455;BME280;68900;52.134;5.420;2023-08-21T03:19:38;102449.75;;;18.85;79.74
79455;BME280;68900;52.134;5.420;2023-08-21T03:22:04;102441.56;;;18.85;79.97
79455;BME280;68900;52.134;5.420;2023-08-21T03:24:31;102445.66;;;18.81;80.48
79455;BME280;68900;52.134;5.420;2023-08-21T03:26:58;102443.78;;;18.81;80.05
79455;BME280;68900;52.134;5.420;2023-08-21T03:29:24;102453.00;;;18.88;80.26
79455;BME280;68900;52.134;5.420;2023-08-21T03:31:57;102447.03;;;18.85;80.23
79455;BME280;68900;52.134;5.420;2023-08-21T03:34:24;102447.38;;;18.82;80.93
79455;BME280;68900;52.134;5.420;2023-08-21T03:36:51;102447.38;;;18.82;80.47
79455;BME280;68900;52.134;5.420;2023-08-21T03:39:35;102447.03;;;18.85;80.36
79455;BME280;68900;52.134;5.420;2023-08-21T03:42:03;102436.94;;;18.85;80.50
79455;BME280;68900;52.134;5.420;2023-08-21T03:44:30;102436.25;;;18.83;80.90
79455;BME280;68900;52.134;5.420;2023-08-21T03:47:13;102446.81;;;18.78;81.09
79455;BME280;68900;52.134;5.420;2023-08-21T03:49:40;102428.03;;;18.75;81.64
79455;BME280;68900;52.134;5.420;2023-08-21T03:52:09;102438.44;;;18.72;81.43
79455;BME280;68900;52.134;5.420;2023-08-21T03:54:36;102433.13;;;18.70;81.06
79455;BME280;68900;52.134;5.420;2023-08-21T03:57:03;102433.28;;;18.69;80.93
79455;BME280;68900;52.134;5.420;2023-08-21T03:59:29;102433.97;;;18.63;81.38
79455;BME280;68900;52.134;5.420;2023-08-21T04:01:56;102431.38;;;18.61;81.16
79455;BME280;68900;52.134;5.420;2023-08-21T04:04:22;102434.47;;;18.66;80.76
79455;BME280;68900;52.134;5.420;2023-08-21T04:06:49;102439.59;;;18.69;80.55
79455;BME280;68900;52.134;5.420;2023-08-21T04:09:16;102439.94;;;18.66;81.07
79455;BME280;68900;52.134;5.420;2023-08-21T04:11:42;102442.16;;;18.63;80.98
79455;BME280;68900;52.134;5.420;2023-08-21T04:14:09;102450.53;;;18.61;81.03
79455;BME280;68900;52.134;5.420;2023-08-21T04:16:35;102440.78;;;18.59;81.29
79455;BME280;68900;52.134;5.420;2023-08-21T04:19:02;102442.81;;;18.57;81.45
79455;BME280;68900;52.134;5.420;2023-08-21T04:21:28;102451.16;;;18.55;81.12
79455;BME280;68900;52.134;5.420;2023-08-21T04:23:55;102454.75;;;18.56;81.12
79455;BME280;68900;52.134;5.420;2023-08-21T04:26:24;102450.78;;;18.50;81.01
79455;BME280;68900;52.134;5.420;2023-08-21T04:28:50;102453.69;;;18.48;81.02
79455;BME280;68900;52.134;5.420;2023-08-21T04:31:17;102448.22;;;18.48;81.19
79455;BME280;68900;52.134;5.420;2023-08-21T04:33:43;102457.59;;;18.46;81.07
79455;BME280;68900;52.134;5.420;2023-08-21T04:36:17;102449.38;;;18.46;81.25
79455;BME280;68900;52.134;5.420;2023-08-21T04:38:43;102450.59;;;18.43;81.83
79455;BME280;68900;52.134;5.420;2023-08-21T04:41:10;102453.47;;;18.42;81.22
79455;BME280;68900;52.134;5.420;2023-08-21T04:43:46;102450.94;;;18.48;80.68
79455;BME280;68900;52.134;5.420;2023-08-21T04:46:12;102452.13;;;18.46;80.61
79455;BME280;68900;52.134;5.420;2023-08-21T04:48:39;102459.78;;;18.42;80.90
79455;BME280;68900;52.134;5.420;2023-08-21T04:51:05;102454.97;;;18.36;81.12
79455;BME280;68900;52.134;5.420;2023-08-21T04:54:03;102457.03;;;18.34;80.84
79455;BME280;68900;52.134;5.420;2023-08-21T04:57:16;102461.66;;;18.42;80.88
79455;BME280;68900;52.134;5.420;2023-08-21T04:59:50;102453.47;;;18.42;81.07
79455;BME280;68900;52.134;5.420;2023-08-21T05:02:29;102461.00;;;18.40;81.08
79455;BME280;68900;52.134;5.420;2023-08-21T05:04:57;102458.41;;;18.38;81.19
79455;BME280;68900;52.134;5.420;2023-08-21T05:07:24;102471.38;;;18.36;81.44
79455;BME280;68900;52.134;5.420;2023-08-21T05:09:50;102474.44;;;18.33;81.52
79455;BME280;68900;52.134;5.420;2023-08-21T05:12:17;102471.69;;;18.33;81.24
79455;BME280;68900;52.134;5.420;2023-08-21T05:14:43;102473.25;;;18.36;81.23
79455;BME280;68900;52.134;5.420;2023-08-21T05:17:10;102484.03;;;18.37;81.73
79455;BME280;68900;52.134;5.420;2023-08-21T05:19:43;102479.44;;;18.46;81.23
79455;BME280;68900;52.134;5.420;2023-08-21T05:24:47;102477.22;;;18.67;80.51
79455;BME280;68900;52.134;5.420;2023-08-21T05:27:14;102480.63;;;18.69;80.34
79455;BME280;68900;52.134;5.420;2023-08-21T05:29:43;102477.75;;;18.71;80.72
79455;BME280;68900;52.134;5.420;2023-08-21T05:32:10;102480.44;;;18.63;80.45
79455;BME280;68900;52.134;5.420;2023-08-21T05:34:36;102473.09;;;18.63;81.75
79455;BME280;68900;52.134;5.420;2023-08-21T05:37:03;102471.53;;;18.61;81.95
79455;BME280;68900;52.134;5.420;2023-08-21T05:39:33;102470.88;;;18.59;81.80
79455;BME280;68900;52.134;5.420;2023-08-21T05:42:04;102473.41;;;18.60;82.29
79455;BME280;68900;52.134;5.420;2023-08-21T05:44:33;102478.19;;;18.58;82.56
79455;BME280;68900;52.134;5.420;2023-08-21T05:47:00;102483.19;;;18.63;82.42
79455;BME280;68900;52.134;5.420;2023-08-21T05:49:26;102480.63;;;18.69;82.22
79455;BME280;68900;52.134;5.420;2023-08-21T06:02:56;102481.09;;;19.07;79.88
79455;BME280;68900;52.134;5.420;2023-08-21T06:05:50;102486.78;;;19.13;79.97
79455;BME280;68900;52.134;5.420;2023-08-21T06:08:56;102483.19;;;19.21;79.59
79455;BME280;68900;52.134;5.420;2023-08-21T06:14:52;102491.63;;;19.35;78.85
79455;BME280;68900;52.134;5.420;2023-08-21T06:17:50;102488.22;;;19.41;78.67
79455;BME280;68900;52.134;5.420;2023-08-21T06:23:32;102492.56;;;19.60;78.68
79455;BME280;68900;52.134;5.420;2023-08-21T06:25:59;102489.13;;;19.66;77.56
79455;BME280;68900;52.134;5.420;2023-08-21T06:28:25;102485.69;;;19.72;77.41
79455;BME280;68900;52.134;5.420;2023-08-21T06:31:09;102495.97;;;19.78;76.79
79455;BME280;68900;52.134;5.420;2023-08-21T06:33:36;102488.78;;;19.85;77.16
79455;BME280;68900;52.134;5.420;2023-08-21T06:36:03;102495.63;;;19.90;76.57
79455;BME280;68900;52.134;5.420;2023-08-21T06:38:29;102489.81;;;19.93;76.48
79455;BME280;68900;52.134;5.420;2023-08-21T06:40:59;102494.94;;;19.96;76.02
79455;BME280;68900;52.134;5.420;2023-08-21T06:43:26;102491.00;;;19.98;75.97
79455;BME280;68900;52.134;5.420;2023-08-21T06:45:56;102489.63;;;20.02;74.77
79455;BME280;68900;52.134;5.420;2023-08-21T06:48:23;102490.50;;;20.11;75.64
79455;BME280;68900;52.134;5.420;2023-08-21T06:50:52;102490.63;;;20.17;75.02
79455;BME280;68900;52.134;5.420;2023-08-21T06:53:19;102492.31;;;20.26;75.35
79455;BME280;68900;52.134;5.420;2023-08-21T06:55:54;102494.41;;;20.33;73.20
79455;BME280;68900;52.134;5.420;2023-08-21T06:58:24;102494.75;;;20.38;72.51
79455;BME280;68900;52.134;5.420;2023-08-21T07:00:50;102496.59;;;20.45;72.70
79455;BME280;68900;52.134;5.420;2023-08-21T07:03:16;102498.66;;;20.51;72.78
79455;BME280;68900;52.134;5.420;2023-08-21T07:05:46;102496.91;;;20.58;72.78
79455;BME280;68900;52.134;5.420;2023-08-21T07:08:17;102493.81;;;20.61;72.47
79455;BME280;68900;52.134;5.420;2023-08-21T07:11:03;102494.97;;;20.67;71.61
79455;BME280;68900;52.134;5.420;2023-08-21T07:13:51;102498.75;;;20.74;70.68
79455;BME280;68900;52.134;5.420;2023-08-21T07:19:54;102494.03;;;20.99;70.78
79455;BME280;68900;52.134;5.420;2023-08-21T07:28:55;102505.63;;;21.17;71.27
79455;BME280;68900;52.134;5.420;2023-08-21T07:35:01;102508.13;;;21.27;71.51
79455;BME280;68900;52.134;5.420;2023-08-21T07:37:37;102494.22;;;21.28;71.31
79455;BME280;68900;52.134;5.420;2023-08-21T07:40:15;102505.69;;;21.32;70.74
79455;BME280;68900;52.134;5.420;2023-08-21T07:55:58;102507.53;;;21.85;67.77
79455;BME280;68900;52.134;5.420;2023-08-21T07:58:24;102500.97;;;21.94;66.97
79455;BME280;68900;52.134;5.420;2023-08-21T08:13:55;102501.75;;;22.02;64.68
79455;BME280;68900;52.134;5.420;2023-08-21T08:16:22;102510.59;;;22.13;63.77
79455;BME280;68900;52.134;5.420;2023-08-21T08:18:48;102507.56;;;22.22;64.54
79455;BME280;68900;52.134;5.420;2023-08-21T08:21:15;102518.75;;;22.21;65.58
79455;BME280;68900;52.134;5.420;2023-08-21T08:23:42;102525.09;;;22.21;64.15
79455;BME280;68900;52.134;5.420;2023-08-21T08:26:09;102521.88;;;22.18;65.35
79455;BME280;68900;52.134;5.420;2023-08-21T08:28:35;102516.97;;;22.28;64.50
79455;BME280;68900;52.134;5.420;2023-08-21T08:31:01;102515.84;;;22.37;65.77
79455;BME280;68900;52.134;5.420;2023-08-21T08:33:39;102506.56;;;22.38;64.44
79455;BME280;68900;52.134;5.420;2023-08-21T08:36:09;102509.22;;;22.46;64.41
79455;BME280;68900;52.134;5.420;2023-08-21T08:38:35;102504.38;;;22.63;65.45
79455;BME280;68900;52.134;5.420;2023-08-21T08:41:52;102511.69;;;22.85;63.89
79455;BME280;68900;52.134;5.420;2023-08-21T08:44:24;102511.97;;;22.90;63.08
79455;BME280;68900;52.134;5.420;2023-08-21T08:47:21;102511.03;;;22.98;62.02
79455;BME280;68900;52.134;5.420;2023-08-21T08:50:02;102522.59;;;23.08;62.13
79455;BME280;68900;52.134;5.420;2023-08-21T08:52:34;102519.34;;;23.19;61.26
79455;BME280;68900;52.134;5.420;2023-08-21T08:55:01;102519.63;;;23.24;59.94
79455;BME280;68900;52.134;5.420;2023-08-21T08:57:32;102501.00;;;23.26;60.36
79455;BME280;68900;52.134;5.420;2023-08-21T08:59:58;102494.44;;;23.27;59.54
79455;BME280;68900;52.134;5.420;2023-08-21T09:02:25;102501.34;;;23.38;59.85
79455;BME280;68900;52.134;5.420;2023-08-21T09:04:53;102502.09;;;23.46;60.53
79455;BME280;68900;52.134;5.420;2023-08-21T09:07:20;102501.34;;;23.52;60.33
79455;BME280;68900;52.134;5.420;2023-08-21T09:13:32;102497.97;;;23.78;57.34
79455;BME280;68900;52.134;5.420;2023-08-21T09:33:40;102495.06;;;24.07;56.86
79455;BME280;68900;52.134;5.420;2023-08-21T09:40:33;102492.44;;;24.20;56.89
79455;BME280;68900;52.134;5.420;2023-08-21T09:43:15;102487.06;;;24.40;56.91
79455;BME280;68900;52.134;5.420;2023-08-21T09:45:52;102490.31;;;24.50;55.04
79455;BME280;68900;52.134;5.420;2023-08-21T09:48:57;102488.63;;;24.56;55.28
79455;BME280;68900;52.134;5.420;2023-08-21T09:55:25;102483.94;;;24.50;53.67
79455;BME280;68900;52.134;5.420;2023-08-21T09:58:00;102479.06;;;24.52;53.01
79455;BME280;68900;52.134;5.420;2023-08-21T10:00:32;102476.97;;;24.54;52.59
79455;BME280;68900;52.134;5.420;2023-08-21T10:09:52;102480.84;;;25.00;54.24
79455;BME280;68900;52.134;5.420;2023-08-21T10:12:40;102475.31;;;25.07;53.94
79455;BME280;68900;52.134;5.420;2023-08-21T10:15:07;102475.97;;;25.16;54.72
79455;BME280;68900;52.134;5.420;2023-08-21T10:17:43;102465.56;;;25.11;54.82
79455;BME280;68900;52.134;5.420;2023-08-21T10:20:10;102457.91;;;25.13;52.47
79455;BME280;68900;52.134;5.420;2023-08-21T10:23:05;102463.06;;;25.23;52.96
79455;BME280;68900;52.134;5.420;2023-08-21T10:25:48;102465.81;;;25.23;53.43
79455;BME280;68900;52.134;5.420;2023-08-21T10:29:01;102461.16;;;25.36;53.72
79455;BME280;68900;52.134;5.420;2023-08-21T10:32:09;102464.88;;;25.57;52.72
79455;BME280;68900;52.134;5.420;2023-08-21T10:34:58;102473.81;;;25.65;52.78
79455;BME280;68900;52.134;5.420;2023-08-21T10:37:29;102472.97;;;25.78;51.84
79455;BME280;68900;52.134;5.420;2023-08-21T10:39:56;102471.47;;;25.75;48.47
79455;BME280;68900;52.134;5.420;2023-08-21T10:42:43;102469.69;;;25.48;49.07
79455;BME280;68900;52.134;5.420;2023-08-21T10:45:14;102472.25;;;25.49;49.56
79455;BME280;68900;52.134;5.420;2023-08-21T10:47:47;102467.41;;;25.65;49.31
79455;BME280;68900;52.134;5.420;2023-08-21T10:50:18;102467.22;;;25.73;50.50
79455;BME280;68900;52.134;5.420;2023-08-21T10:53:05;102465.50;;;25.85;51.47
79455;BME280;68900;52.134;5.420;2023-08-21T10:57:58;102465.72;;;25.83;48.18
79455;BME280;68900;52.134;5.420;2023-08-21T11:00:24;102468.91;;;25.87;46.99
79455;BME280;68900;52.134;5.420;2023-08-21T11:02:51;102461.88;;;25.58;46.68
79455;BME280;68900;52.134;5.420;2023-08-21T11:05:18;102461.88;;;25.65;47.19
79455;BME280;68900;52.134;5.420;2023-08-21T11:07:46;102457.41;;;25.77;48.79
79455;BME280;68900;52.134;5.420;2023-08-21T11:10:21;102459.56;;;25.88;47.75
79455;BME280;68900;52.134;5.420;2023-08-21T11:12:58;102463.78;;;26.04;45.73
79455;BME280;68900;52.134;5.420;2023-08-21T11:15:28;102458.47;;;26.09;44.62
79455;BME280;68900;52.134;5.420;2023-08-21T11:17:57;102465.28;;;26.00;46.22
79455;BME280;68900;52.134;5.420;2023-08-21T11:20:33;102454.44;;;26.05;45.24
79455;BME280;68900;52.134;5.420;2023-08-21T11:23:06;102458.47;;;26.09;47.10
79455;BME280;68900;52.134;5.420;2023-08-21T11:25:48;102455.75;;;26.22;46.46
79455;BME280;68900;52.134;5.420;2023-08-21T11:28:16;102452.31;;;26.33;45.63
79455;BME280;68900;52.134;5.420;2023-08-21T11:30:43;102453.16;;;26.27;47.65
79455;BME280;68900;52.134;5.420;2023-08-21T11:33:11;102453.56;;;26.37;46.22
79455;BME280;68900;52.134;5.420;2023-08-21T11:35:44;102447.38;;;26.42;45.20
79455;BME280;68900;52.134;5.420;2023-08-21T11:38:21;102443.25;;;26.64;44.81
79455;BME280;68900;52.134;5.420;2023-08-21T11:47:30;102451.25;;;26.98;44.56
79455;BME280;68900;52.134;5.420;2023-08-21T11:50:05;102448.22;;;27.06;44.47
79455;BME280;68900;52.134;5.420;2023-08-21T11:52:32;102442.28;;;26.96;45.07
79455;BME280;68900;52.134;5.420;2023-08-21T11:54:59;102444.06;;;26.91;42.90
79455;BME280;68900;52.134;5.420;2023-08-21T11:57:28;102433.81;;;26.91;43.57
79455;BME280;68900;52.134;5.420;2023-08-21T11:59:56;102429.34;;;26.90;43.74
79455;BME280;68900;52.134;5.420;2023-08-21T12:02:23;102428.81;;;27.06;43.18
79455;BME280;68900;52.134;5.420;2023-08-21T12:05:14;102431.88;;;27.30;46.22
79455;BME280;68900;52.134;5.420;2023-08-21T12:07:40;102437.56;;;27.41;43.06
79455;BME280;68900;52.134;5.420;2023-08-21T12:10:08;102433.56;;;27.37;43.06
79455;BME280;68900;52.134;5.420;2023-08-21T12:12:37;102423.28;;;27.38;44.08
79455;BME280;68900;52.134;5.420;2023-08-21T12:15:06;102431.56;;;27.44;44.33
79455;BME280;68900;52.134;5.420;2023-08-21T12:17:32;102433.13;;;27.34;42.98
79455;BME280;68900;52.134;5.420;2023-08-21T12:19:59;102429.84;;;27.18;43.43
79455;BME280;68900;52.134;5.420;2023-08-21T12:22:27;102430.78;;;26.99;43.29
79455;BME280;68900;52.134;5.420;2023-08-21T12:24:54;102421.22;;;26.95;42.68
79455;BME280;68900;52.134;5.420;2023-08-21T12:27:21;102427.44;;;26.77;43.80
79455;BME280;68900;52.134;5.420;2023-08-21T12:29:48;102430.06;;;26.66;45.14
79455;BME280;68900;52.134;5.420;2023-08-21T12:32:16;102427.06;;;26.67;45.16
79455;BME280;68900;52.134;5.420;2023-08-21T12:34:45;102423.00;;;26.70;44.62
79455;BME280;68900;52.134;5.420;2023-08-21T12:37:12;102413.41;;;26.72;45.84
79455;BME280;68900;52.134;5.420;2023-08-21T12:47:46;102415.28;;;26.85;45.21
79455;BME280;68900;52.134;5.420;2023-08-21T12:50:13;102409.72;;;26.85;44.83
79455;BME280;68900;52.134;5.420;2023-08-21T12:52:39;102412.31;;;26.80;46.62
79455;BME280;68900;52.134;5.420;2023-08-21T12:55:07;102413.84;;;26.69;44.56
79455;BME280;68900;52.134;5.420;2023-08-21T12:57:34;102420.28;;;26.63;45.42
79455;BME280;68900;52.134;5.420;2023-08-21T13:00:00;102421.13;;;26.57;45.93
79455;BME280;68900;52.134;5.420;2023-08-21T13:02:27;102419.88;;;26.47;46.34
79455;BME280;68900;52.134;5.420;2023-08-21T13:04:57;102417.38;;;26.38;46.86
79455;BME280;68900;52.134;5.420;2023-08-21T13:07:23;102418.81;;;26.48;45.74
79455;BME280;68900;52.134;5.420;2023-08-21T13:09:49;102408.16;;;26.58;44.45
79455;BME280;68900;52.134;5.420;2023-08-21T13:12:16;102409.63;;;26.60;44.29
79455;BME280;68900;52.134;5.420;2023-08-21T13:14:42;102411.47;;;26.73;43.71
79455;BME280;68900;52.134;5.420;2023-08-21T13:17:09;102399.72;;;26.77;43.32
79455;BME280;68900;52.134;5.420;2023-08-21T13:19:40;102402.50;;;26.91;41.71
79455;BME280;68900;52.134;5.420;2023-08-21T13:22:06;102405.41;;;27.02;42.18
79455;BME280;68900;52.134;5.420;2023-08-21T13:24:33;102399.19;;;27.07;41.67
79455;BME280;68900;52.134;5.420;2023-08-21T13:27:02;102394.91;;;27.11;41.80
79455;BME280;68900;52.134;5.420;2023-08-21T13:29:31;102391.91;;;27.12;42.44
79455;BME280;68900;52.134;5.420;2023-08-21T13:31:59;102395.47;;;27.19;42.50
79455;BME280;68900;52.134;5.420;2023-08-21T13:34:25;102392.53;;;27.14;43.53
79455;BME280;68900;52.134;5.420;2023-08-21T13:36:52;102395.03;;;27.22;43.52
79455;BME280;68900;52.134;5.420;2023-08-21T13:42:03;102392.53;;;27.46;45.27
79455;BME280;68900;52.134;5.420;2023-08-21T13:51:25;102387.97;;;27.58;44.37
79455;BME280;68900;52.134;5.420;2023-08-21T13:54:18;102389.69;;;27.59;44.25
79455;BME280;68900;52.134;5.420;2023-08-21T13:56:57;102385.50;;;27.50;43.04
79455;BME280;68900;52.134;5.420;2023-08-21T13:59:52;102383.91;;;27.60;42.35
79455;BME280;68900;52.134;5.420;2023-08-21T14:02:19;102386.25;;;27.57;42.72
79455;BME280;68900;52.134;5.420;2023-08-21T14:04:46;102390.97;;;27.56;41.84
79455;BME280;68900;52.134;5.420;2023-08-21T14:07:24;102392.44;;;27.59;43.25
79455;BME280;68900;52.134;5.420;2023-08-21T14:09:50;102376.16;;;27.69;43.33
79455;BME280;68900;52.134;5.420;2023-08-21T14:12:20;102372.00;;;27.78;42.59
79455;BME280;68900;52.134;5.420;2023-08-21T14:14:47;102383.09;;;27.78;43.38
79455;BME280;68900;52.134;5.420;2023-08-21T14:17:16;102373.53;;;27.74;42.90
79455;BME280;68900;52.134;5.420;2023-08-21T14:19:42;102374.66;;;27.66;44.61
79455;BME280;68900;52.134;5.420;2023-08-21T14:22:09;102361.25;;;27.63;42.71
79455;BME280;68900;52.134;5.420;2023-08-21T14:24:38;102366.84;;;27.57;43.15
79455;BME280;68900;52.134;5.420;2023-08-21T14:27:05;102359.66;;;27.49;43.56
79455;BME280;68900;52.134;5.420;2023-08-21T14:29:34;102353.91;;;27.51;43.55
79455;BME280;68900;52.134;5.420;2023-08-21T14:32:00;102362.84;;;27.53;42.32
79455;BME280;68900;52.134;5.420;2023-08-21T14:34:27;102360.88;;;27.60;43.21
79455;BME280;68900;52.134;5.420;2023-08-21T14:37:02;102361.25;;;27.63;44.00
79455;BME280;68900;52.134;5.420;2023-08-21T14:39:30;102343.81;;;27.56;44.99
79455;BME280;68900;52.134;5.420;2023-08-21T14:41:57;102350.94;;;27.71;46.06
79455;BME280;68900;52.134;5.420;2023-08-21T14:44:24;102345.06;;;27.60;45.36
79455;BME280;68900;52.134;5.420;2023-08-21T14:46:54;102335.56;;;27.50;44.54
79455;BME280;68900;52.134;5.420;2023-08-21T14:49:27;102327.25;;;27.50;45.06
79455;BME280;68900;52.134;5.420;2023-08-21T14:51:54;102331.91;;;27.56;44.89
79455;BME280;68900;52.134;5.420;2023-08-21T14:54:22;102329.66;;;27.64;45.28
79455;BME280;68900;52.134;5.420;2023-08-21T14:56:49;102334.22;;;27.77;44.72
79455;BME280;68900;52.134;5.420;2023-08-21T14:59:15;102326.97;;;27.76;44.88
79455;BME280;68900;52.134;5.420;2023-08-21T15:01:42;102325.59;;;27.85;42.44
79455;BME280;68900;52.134;5.420;2023-08-21T15:04:09;102328.47;;;27.97;45.46
79455;BME280;68900;52.134;5.420;2023-08-21T15:06:38;102331.81;;;28.05;44.46
79455;BME280;68900;52.134;5.420;2023-08-21T15:09:05;102336.28;;;28.06;44.46
79455;BME280;68900;52.134;5.420;2023-08-21T15:11:33;102325.97;;;28.14;45.02
79455;BME280;68900;52.134;5.420;2023-08-21T15:14:01;102329.06;;;28.24;44.62
79455;BME280;68900;52.134;5.420;2023-08-21T15:16:31;102325.56;;;28.10;44.64
79455;BME280;68900;52.134;5.420;2023-08-21T15:18:58;102319.47;;;28.01;43.73